Time;durP1;ratioP1;P1;durP2;ratioP2;P2;SDS_P1;SDS_P2;PMS_P1;PMS_P2;Temp;Humidity;BMP_temperature;BMP_pressure;BME280_temperature;BME280_humidity;BME280_pressure;Samples;Min_cycle;Max_cycle;Signal;HPM_P1;HPM_P2
2024/01/04 05:02:18;;;;;;;0.40;0.40;;;5.30;99.90;;;;;;5025351;23;20828;-70
2024/01/04 05:04:45;;;;;;;0.47;0.47;;;5.30;99.90;;;;;;4894857;29;20222;-69
2024/01/04 05:07:12;;;;;;;0.82;0.30;;;5.20;99.90;;;;;;4894722;29;20222;-69
2024/01/04 05:09:38;;;;;;;0.52;0.52;;;5.20;99.90;;;;;;4895989;29;20226;-70
2024/01/04 05:12:06;;;;;;;0.40;0.40;;;5.20;99.90;;;;;;4891842;29;20238;-71
2024/01/04 05:14:33;;;;;;;0.20;0.20;;;5.10;99.90;;;;;;4893027;29;20210;-73
2024/01/04 05:17:00;;;;;;;0.68;0.68;;;5.10;99.90;;;;;;4894959;29;20312;-70
2024/01/04 05:19:28;;;;;;;0.30;0.20;;;5.10;99.90;;;;;;4895983;29;20211;-71
2024/01/04 05:21:54;;;;;;;0.30;0.30;;;5.00;99.90;;;;;;4893882;29;20230;-69
2024/01/04 05:24:21;;;;;;;8.07;0.60;;;5.00;99.90;;;;;;4895035;29;20306;-71
2024/01/04 05:26:48;;;;;;;0.90;0.55;;;5.00;99.90;;;;;;4893708;29;20206;-70
2024/01/04 05:29:14;;;;;;;0.65;0.30;;;4.90;99.90;;;;;;4894872;29;20218;-69
2024/01/04 05:31:41;;;;;;;0.40;0.40;;;4.90;99.90;;;;;;4894458;29;20243;-70
2024/01/04 05:34:08;;;;;;;0.32;0.32;;;4.90;99.90;;;;;;4889552;29;20215;-69
2024/01/04 05:36:36;;;;;;;0.20;0.20;;;4.90;99.90;;;;;;4894079;29;20694;-72
2024/01/04 05:39:03;;;;;;;0.32;0.32;;;4.80;99.90;;;;;;4895445;29;20674;-71
2024/01/04 05:41:30;;;;;;;0.20;0.20;;;4.80;99.90;;;;;;4892961;29;20226;-71
2024/01/04 05:43:57;;;;;;;0.85;0.85;;;4.80;99.90;;;;;;4893565;29;20439;-69
2024/01/04 05:46:24;;;;;;;0.93;0.45;;;4.80;99.90;;;;;;4894377;29;20221;-73
2024/01/04 05:48:51;;;;;;;0.88;0.88;;;4.80;99.90;;;;;;4894744;29;20210;-68
2024/01/04 05:51:17;;;;;;;0.40;0.30;;;4.80;99.90;;;;;;4893829;29;20585;-71
2024/01/04 05:53:45;;;;;;;0.20;0.20;;;4.70;99.90;;;;;;4894598;29;20217;-69
2024/01/04 05:56:12;;;;;;;0.38;0.38;;;4.70;99.90;;;;;;4894215;29;20214;-71
2024/01/04 05:58:39;;;;;;;2.58;0.47;;;4.70;99.90;;;;;;4895116;29;20591;-71
2024/01/04 06:01:08;;;;;;;0.20;0.20;;;4.60;99.90;;;;;;4893415;29;20336;-72
2024/01/04 06:03:34;;;;;;;0.52;0.52;;;4.60;99.90;;;;;;4895242;29;20724;-69
2024/01/04 06:06:01;;;;;;;0.95;0.55;;;4.60;99.90;;;;;;4893743;29;20313;-71
2024/01/04 06:08:28;;;;;;;0.30;0.30;;;4.60;99.90;;;;;;4893449;29;20309;-71
2024/01/04 06:10:56;;;;;;;1.00;0.30;;;4.60;99.90;;;;;;4893649;29;20234;-72
2024/01/04 06:13:26;;;;;;;0.20;0.20;;;4.60;99.90;;;;;;4895260;29;20218;-71
2024/01/04 06:15:53;;;;;;;0.30;0.30;;;4.50;99.90;;;;;;4894460;29;20903;-70
2024/01/04 06:18:20;;;;;;;0.45;0.45;;;4.50;99.90;;;;;;4893584;29;20808;-70
2024/01/04 06:20:47;;;;;;;3.90;0.50;;;4.50;99.90;;;;;;4887925;29;20253;-69
2024/01/04 06:23:15;;;;;;;0.30;0.30;;;4.40;99.90;;;;;;4896411;29;20217;-72
2024/01/04 06:25:41;;;;;;;0.32;0.32;;;4.40;99.90;;;;;;4894493;29;20204;-71
2024/01/04 06:28:09;;;;;;;0.30;0.30;;;4.40;99.90;;;;;;4892395;29;20210;-71
2024/01/04 06:30:36;;;;;;;0.95;0.60;;;4.30;99.90;;;;;;4893829;29;20234;-71
2024/01/04 06:33:03;;;;;;;0.40;0.40;;;4.30;99.90;;;;;;4894237;29;20214;-71
2024/01/04 06:35:30;;;;;;;0.55;0.40;;;4.20;99.90;;;;;;4888317;29;20223;-73
2024/01/04 06:37:56;;;;;;;0.55;0.55;;;4.10;99.90;;;;;;4900341;29;20304;-70
2024/01/04 06:40:23;;;;;;;0.20;0.20;;;4.00;99.90;;;;;;4892408;29;20216;-71
2024/01/04 06:42:55;;;;;;;1.50;0.45;;;4.00;99.90;;;;;;4895017;29;20228;-71
2024/01/04 06:45:23;;;;;;;0.20;0.20;;;4.00;99.90;;;;;;4893593;29;20621;-71
2024/01/04 06:47:50;;;;;;;0.40;0.20;;;3.90;99.90;;;;;;4888892;29;20211;-71
2024/01/04 06:50:17;;;;;;;0.90;0.80;;;3.90;99.90;;;;;;4892810;29;20584;-72
2024/01/04 06:52:44;;;;;;;0.52;0.52;;;3.80;99.90;;;;;;4893682;29;20237;-71
2024/01/04 06:55:10;;;;;;;0.22;0.22;;;3.70;99.90;;;;;;4894894;29;20212;-73
2024/01/04 06:57:37;;;;;;;0.20;0.20;;;3.70;99.90;;;;;;4895339;29;20284;-72
2024/01/04 07:00:05;;;;;;;0.25;0.25;;;3.60;99.90;;;;;;4894962;29;20240;-71
2024/01/04 07:02:35;;;;;;;0.30;0.30;;;3.60;99.90;;;;;;4891599;29;20751;-71
2024/01/04 07:05:03;;;;;;;0.20;0.20;;;3.50;99.90;;;;;;4893311;29;20205;-71
2024/01/04 07:07:30;;;;;;;0.50;0.45;;;3.40;99.90;;;;;;4893962;29;20575;-73
2024/01/04 07:09:57;;;;;;;0.40;0.40;;;3.30;99.90;;;;;;4894067;29;20216;-71
2024/01/04 07:12:25;;;;;;;0.73;0.73;;;3.20;99.90;;;;;;4894481;29;20723;-70
2024/01/04 07:14:51;;;;;;;0.40;0.40;;;3.20;99.90;;;;;;4892963;29;20593;-71
2024/01/04 07:17:18;;;;;;;1.00;0.90;;;3.20;99.90;;;;;;4892669;29;20222;-70
2024/01/04 07:19:46;;;;;;;0.50;0.50;;;3.10;99.90;;;;;;4894357;29;20218;-70
2024/01/04 07:22:15;;;;;;;0.65;0.65;;;3.10;99.90;;;;;;4894473;29;20231;-71
2024/01/04 07:24:42;;;;;;;0.57;0.57;;;3.00;99.90;;;;;;4896016;29;20211;-70
2024/01/04 07:27:09;;;;;;;0.73;0.63;;;3.10;99.90;;;;;;4894593;29;20211;-71
2024/01/04 07:29:36;;;;;;;0.93;0.70;;;3.10;99.90;;;;;;4894503;29;20213;-70
2024/01/04 07:32:03;;;;;;;0.93;0.93;;;3.10;99.90;;;;;;4888789;29;20247;-70
2024/01/04 07:34:37;;;;;;;1.02;1.02;;;3.00;99.90;;;;;;4885775;29;20217;-72
2024/01/04 07:37:06;;;;;;;0.57;0.57;;;3.00;99.90;;;;;;4893871;29;20220;-72
2024/01/04 07:39:32;;;;;;;0.85;0.80;;;2.90;99.90;;;;;;4897492;29;20639;-70
2024/01/04 07:41:59;;;;;;;0.93;0.93;;;2.90;99.90;;;;;;4895622;29;20316;-71
2024/01/04 07:44:26;;;;;;;0.75;0.75;;;2.90;99.90;;;;;;4893363;29;20215;-72
2024/01/04 07:46:53;;;;;;;0.98;0.98;;;2.90;99.90;;;;;;4895149;29;20219;-70
2024/01/04 07:49:19;;;;;;;0.82;0.82;;;2.90;99.90;;;;;;4896689;29;20212;-71
2024/01/04 07:51:46;;;;;;;0.73;0.73;;;2.90;99.90;;;;;;4888217;29;20230;-72
2024/01/04 07:54:14;;;;;;;0.57;0.57;;;2.90;99.90;;;;;;4895335;29;20219;-70
2024/01/04 07:56:41;;;;;;;0.95;0.95;;;2.90;99.90;;;;;;4896344;29;20203;-72
2024/01/04 07:59:08;;;;;;;1.45;1.45;;;2.90;99.90;;;;;;4896775;29;20313;-72
2024/01/04 08:01:35;;;;;;;1.52;1.10;;;2.80;99.90;;;;;;4895036;29;20240;-71
2024/01/04 08:04:03;;;;;;;0.82;0.82;;;2.80;99.90;;;;;;4894776;29;20211;-71
2024/01/04 08:06:30;;;;;;;0.98;0.98;;;2.80;99.90;;;;;;4896348;29;20255;-71
2024/01/04 08:08:57;;;;;;;0.47;0.47;;;2.80;99.90;;;;;;4896753;29;20714;-71
2024/01/04 08:11:25;;;;;;;1.00;1.00;;;2.80;99.90;;;;;;4893912;29;20242;-70
2024/01/04 08:13:52;;;;;;;0.80;0.80;;;2.70;99.90;;;;;;4896878;29;20210;-70
2024/01/04 08:16:19;;;;;;;1.40;1.40;;;2.70;99.90;;;;;;4895954;29;20233;-71
2024/01/04 08:18:46;;;;;;;0.80;0.80;;;2.70;99.90;;;;;;4895416;29;20218;-69
2024/01/04 08:21:12;;;;;;;1.35;1.08;;;2.70;99.90;;;;;;4895975;29;20242;-71
2024/01/04 08:23:41;;;;;;;1.23;1.13;;;2.70;99.90;;;;;;4895386;29;20579;-72
2024/01/04 08:26:08;;;;;;;1.52;1.42;;;2.70;99.90;;;;;;4896162;29;20219;-70
2024/01/04 08:28:36;;;;;;;0.70;0.50;;;2.60;99.90;;;;;;4895096;29;20243;-71
2024/01/04 08:31:03;;;;;;;0.93;0.93;;;2.60;99.90;;;;;;4897566;29;20242;-71
2024/01/04 08:33:30;;;;;;;0.65;0.65;;;2.60;99.90;;;;;;4894805;29;20231;-70
2024/01/04 08:35:56;;;;;;;3.00;1.02;;;2.60;99.90;;;;;;4895704;29;20689;-71
2024/01/04 08:38:23;;;;;;;0.77;0.77;;;2.60;99.90;;;;;;4895760;29;20222;-70
2024/01/04 08:40:50;;;;;;;1.20;0.75;;;2.60;99.90;;;;;;4895194;29;20234;-71
2024/01/04 08:43:17;;;;;;;2.38;1.40;;;2.60;99.90;;;;;;4895468;29;20324;-71
2024/01/04 08:45:45;;;;;;;0.90;0.90;;;2.60;99.90;;;;;;4891214;29;20270;-71
2024/01/04 08:48:12;;;;;;;3.33;0.82;;;2.60;99.90;;;;;;4894520;29;20700;-71
2024/01/04 08:50:39;;;;;;;1.05;1.05;;;2.60;99.90;;;;;;4896158;29;20238;-73
2024/01/04 08:53:06;;;;;;;0.60;0.60;;;2.50;99.90;;;;;;4895975;29;20702;-70
2024/01/04 08:55:33;;;;;;;3.33;1.25;;;2.60;99.90;;;;;;4891403;29;20693;-72
2024/01/04 08:57:59;;;;;;;1.10;1.10;;;2.60;99.90;;;;;;4895817;29;20208;-73
2024/01/04 09:00:25;;;;;;;0.35;0.35;;;2.60;99.90;;;;;;4895098;29;20211;-70
2024/01/04 09:02:53;;;;;;;1.83;1.43;;;2.50;99.90;;;;;;4894840;29;20223;-72
2024/01/04 09:05:20;;;;;;;4.78;1.27;;;2.50;99.90;;;;;;4894753;29;20224;-70
2024/01/04 09:07:47;;;;;;;2.40;2.30;;;2.50;99.90;;;;;;4895380;29;20234;-70
2024/01/04 09:10:14;;;;;;;1.85;1.75;;;2.60;99.90;;;;;;4893952;29;20214;-71
2024/01/04 09:12:42;;;;;;;1.90;1.80;;;2.60;99.90;;;;;;4891736;29;20243;-71
2024/01/04 09:15:09;;;;;;;2.50;2.25;;;2.60;99.90;;;;;;4895837;29;20216;-71
2024/01/04 09:17:36;;;;;;;9.43;4.25;;;2.50;99.90;;;;;;4891600;29;20264;-72
2024/01/04 09:20:05;;;;;;;4.53;2.28;;;2.50;99.90;;;;;;4888649;29;20298;-71
2024/01/04 09:22:32;;;;;;;1.35;1.35;;;2.60;99.90;;;;;;4892742;29;20246;-70
2024/01/04 09:24:59;;;;;;;2.50;2.40;;;2.50;99.90;;;;;;4894128;29;20215;-72
2024/01/04 09:27:26;;;;;;;1.95;1.95;;;2.50;99.90;;;;;;4891393;29;20212;-72
2024/01/04 09:29:54;;;;;;;1.38;1.38;;;2.60;99.90;;;;;;4893674;29;20208;-72
2024/01/04 09:32:21;;;;;;;1.52;1.52;;;2.60;99.90;;;;;;4892808;29;20687;-72
2024/01/04 09:34:49;;;;;;;1.98;1.88;;;2.60;99.90;;;;;;4900519;29;20208;-72
2024/01/04 09:37:18;;;;;;;2.55;2.35;;;2.60;99.90;;;;;;4895837;29;20289;-72
2024/01/04 09:39:44;;;;;;;2.40;2.30;;;2.60;99.90;;;;;;4894961;29;20230;-72
2024/01/04 09:42:14;;;;;;;0.95;0.95;;;2.60;99.90;;;;;;4893622;29;20314;-70
2024/01/04 09:44:42;;;;;;;1.05;1.05;;;2.60;99.90;;;;;;4892556;29;20225;-70
2024/01/04 09:47:11;;;;;;;1.38;1.38;;;2.60;99.90;;;;;;4890833;29;20548;-70
2024/01/04 09:49:38;;;;;;;1.73;1.63;;;2.60;99.90;;;;;;4890011;29;20214;-69
2024/01/04 09:52:06;;;;;;;3.67;1.60;;;2.60;99.90;;;;;;4887360;29;20623;-70
2024/01/04 09:54:35;;;;;;;2.15;2.05;;;2.60;99.90;;;;;;4891962;29;20229;-70
2024/01/04 09:57:02;;;;;;;1.88;1.77;;;2.70;99.90;;;;;;4891593;29;20683;-72
2024/01/04 09:59:31;;;;;;;2.28;1.30;;;2.70;99.90;;;;;;4893596;29;20676;-71
2024/01/04 10:02:00;;;;;;;3.17;1.98;;;2.70;99.90;;;;;;4893077;29;20241;-71
2024/01/04 10:04:28;;;;;;;3.40;1.50;;;2.80;99.90;;;;;;4890751;29;20218;-71
2024/01/04 10:06:59;;;;;;;1.30;1.20;;;2.80;99.90;;;;;;4894339;29;20224;-71
2024/01/04 10:09:29;;;;;;;1.88;1.75;;;2.80;99.90;;;;;;4895279;29;20223;-71
2024/01/04 10:12:05;;;;;;;1.77;1.73;;;2.80;99.90;;;;;;4886572;29;20239;-71
2024/01/04 10:14:33;;;;;;;2.70;1.60;;;2.80;99.90;;;;;;4894522;29;20267;-71
2024/01/04 10:17:00;;;;;;;1.55;1.55;;;2.80;99.90;;;;;;4890771;29;20226;-70
2024/01/04 10:19:28;;;;;;;2.55;2.40;;;2.80;99.90;;;;;;4895808;29;20217;-71
2024/01/04 10:22:01;;;;;;;1.80;1.70;;;2.80;99.90;;;;;;4896369;29;20250;-71
2024/01/04 10:24:30;;;;;;;1.50;1.40;;;2.80;99.90;;;;;;4892941;29;20212;-72
2024/01/04 10:26:57;;;;;;;1.40;1.30;;;2.80;99.90;;;;;;4898527;29;20268;-71
2024/01/04 10:29:26;;;;;;;2.05;1.80;;;2.80;99.90;;;;;;4892831;29;20286;-71
2024/01/04 10:31:59;;;;;;;1.75;1.65;;;2.80;99.90;;;;;;4890201;29;20315;-71
2024/01/04 10:34:27;;;;;;;4.18;3.95;;;2.80;99.90;;;;;;4889846;29;20680;-71
2024/01/04 10:36:54;;;;;;;3.95;2.55;;;2.80;99.90;;;;;;4890620;29;20286;-71
2024/01/04 10:39:21;;;;;;;2.30;2.30;;;2.80;99.90;;;;;;4893736;29;20220;-71
2024/01/04 10:41:59;;;;;;;4.55;2.00;;;2.80;99.90;;;;;;4892116;29;20247;-73
2024/01/04 10:44:27;;;;;;;2.22;1.75;;;2.80;99.90;;;;;;4892780;29;20220;-70
2024/01/04 10:46:55;;;;;;;2.90;2.30;;;2.80;99.90;;;;;;4886991;29;20624;-73
2024/01/04 10:49:23;;;;;;;1.08;1.08;;;2.90;99.90;;;;;;4893197;29;20222;-72
2024/01/04 10:51:52;;;;;;;1.30;1.20;;;2.80;99.90;;;;;;4892711;29;20241;-73
2024/01/04 10:54:19;;;;;;;1.00;1.00;;;2.80;99.90;;;;;;4892329;29;20237;-73
2024/01/04 10:56:46;;;;;;;1.80;1.70;;;2.80;99.90;;;;;;4892752;29;20285;-72
2024/01/04 10:59:13;;;;;;;1.85;1.75;;;2.80;99.90;;;;;;4891532;29;20211;-72
2024/01/04 11:01:42;;;;;;;1.48;1.38;;;2.80;99.90;;;;;;4894884;29;20632;-72
2024/01/04 11:04:10;;;;;;;1.23;1.23;;;2.80;99.90;;;;;;4897408;29;20208;-72
2024/01/04 11:06:40;;;;;;;1.25;1.25;;;2.80;99.90;;;;;;4893308;29;20211;-72
2024/01/04 11:09:07;;;;;;;2.20;2.08;;;2.80;99.90;;;;;;4890309;29;20625;-70
2024/01/04 11:11:34;;;;;;;2.03;1.92;;;2.90;99.90;;;;;;4893887;29;20228;-70
2024/01/04 11:14:01;;;;;;;1.48;1.38;;;2.90;99.90;;;;;;4897140;29;20229;-70
2024/01/04 11:16:46;;;;;;;2.33;2.22;;;2.90;99.90;;;;;;4896357;29;20227;-70
2024/01/04 11:19:27;;;;;;;1.90;1.45;;;2.90;99.90;;;;;;4894275;29;20301;-70
2024/01/04 11:22:12;;;;;;;2.53;2.33;;;2.90;99.90;;;;;;4896598;29;20238;-70
2024/01/04 11:24:49;;;;;;;1.77;1.77;;;2.90;99.90;;;;;;4894221;29;20227;-70
2024/01/04 11:27:17;;;;;;;1.70;1.60;;;2.90;99.90;;;;;;4896068;29;20215;-71
2024/01/04 11:29:45;;;;;;;2.05;1.20;;;3.00;99.90;;;;;;4894044;29;20316;-71
2024/01/04 11:32:12;;;;;;;2.50;1.95;;;3.00;99.90;;;;;;4896118;29;20232;-70
2024/01/04 11:34:41;;;;;;;1.80;1.70;;;3.00;99.90;;;;;;4892515;29;20205;-70
2024/01/04 11:37:09;;;;;;;1.35;1.35;;;3.00;99.90;;;;;;4893190;29;20211;-70
2024/01/04 11:39:54;;;;;;;2.50;2.33;;;2.90;99.90;;;;;;4895068;29;20205;-71
2024/01/04 11:42:21;;;;;;;1.20;1.20;;;3.00;99.90;;;;;;4896601;29;20235;-70
2024/01/04 11:44:49;;;;;;;1.45;1.40;;;2.90;99.90;;;;;;4892735;29;20211;-70
2024/01/04 11:47:16;;;;;;;1.67;1.67;;;2.90;99.90;;;;;;4897496;29;20228;-71
2024/01/04 11:49:48;;;;;;;1.90;1.73;;;3.10;99.90;;;;;;4902482;29;20672;-72
2024/01/04 11:52:16;;;;;;;3.55;2.83;;;3.10;99.90;;;;;;4896542;29;20275;-72
2024/01/04 11:54:43;;;;;;;3.95;3.65;;;3.10;99.90;;;;;;4896222;29;20216;-72
2024/01/04 11:57:17;;;;;;;2.17;1.42;;;3.10;99.90;;;;;;4896965;29;20209;-72
2024/01/04 11:59:44;;;;;;;2.63;2.53;;;3.00;99.90;;;;;;4896027;29;20730;-72
2024/01/04 12:02:18;;;;;;;2.60;2.50;;;3.00;99.90;;;;;;4895132;29;20247;-73
2024/01/04 12:04:44;;;;;;;1.40;1.40;;;2.70;99.90;;;;;;4895914;29;20223;-73
2024/01/04 12:07:13;;;;;;;3.60;3.13;;;3.00;99.90;;;;;;4895941;29;20212;-72
2024/01/04 12:09:41;;;;;;;2.13;2.03;;;3.00;99.90;;;;;;4895826;29;20212;-73
2024/01/04 12:12:09;;;;;;;1.98;1.88;;;3.00;99.90;;;;;;4895651;29;20233;-72
2024/01/04 12:14:36;;;;;;;1.85;1.55;;;3.00;99.90;;;;;;4895448;29;20238;-73
2024/01/04 12:17:03;;;;;;;1.20;1.20;;;3.10;99.90;;;;;;4895578;29;20208;-72
2024/01/04 12:19:29;;;;;;;1.10;1.08;;;3.10;99.90;;;;;;4894585;29;20702;-72
2024/01/04 12:21:56;;;;;;;1.33;1.23;;;3.00;99.90;;;;;;4897020;29;20244;-73
2024/01/04 12:24:25;;;;;;;2.75;2.65;;;3.10;99.90;;;;;;4894280;29;20233;-72
2024/01/04 12:26:53;;;;;;;1.65;1.65;;;3.10;99.90;;;;;;4895237;29;20648;-72
2024/01/04 12:29:21;;;;;;;5.45;5.05;;;3.10;99.90;;;;;;4895210;29;20212;-73
2024/01/04 12:31:50;;;;;;;1.17;1.10;;;3.40;99.90;;;;;;4893107;29;20223;-72
2024/01/04 12:34:17;;;;;;;3.58;2.60;;;3.20;99.90;;;;;;4894529;29;20331;-72
2024/01/04 12:36:43;;;;;;;2.28;2.17;;;3.20;99.90;;;;;;4893195;29;20221;-72
2024/01/04 12:39:11;;;;;;;7.95;4.20;;;3.30;99.90;;;;;;4895155;29;20216;-72
2024/01/04 12:41:43;;;;;;;4.82;2.88;;;3.30;99.90;;;;;;4894617;29;20324;-73
2024/01/04 12:44:09;;;;;;;3.03;2.42;;;3.30;99.90;;;;;;4895201;29;20209;-72
2024/01/04 12:46:39;;;;;;;2.40;2.15;;;3.40;99.90;;;;;;4894480;29;20213;-71
2024/01/04 12:49:07;;;;;;;2.20;1.88;;;3.40;99.90;;;;;;4894955;29;20208;-71
2024/01/04 12:51:35;;;;;;;1.60;1.60;;;3.40;99.90;;;;;;4894292;29;20561;-72
2024/01/04 12:54:02;;;;;;;2.38;2.28;;;3.30;99.90;;;;;;4889939;29;20662;-73
2024/01/04 12:56:29;;;;;;;1.15;0.65;;;3.30;99.90;;;;;;4895366;29;20210;-72
2024/01/04 12:59:01;;;;;;;1.10;1.10;;;3.20;99.90;;;;;;4894759;29;20221;-73
2024/01/04 13:01:28;;;;;;;1.67;1.58;;;3.20;99.90;;;;;;4892868;29;20716;-73
2024/01/04 13:03:55;;;;;;;3.03;1.85;;;3.20;99.90;;;;;;4889655;29;20266;-72
2024/01/04 13:06:22;;;;;;;4.28;3.83;;;3.20;99.90;;;;;;4886250;29;20227;-72
2024/01/04 13:08:50;;;;;;;1.90;1.05;;;3.20;99.90;;;;;;4894326;29;20576;-71
2024/01/04 13:11:17;;;;;;;1.27;1.17;;;3.20;99.90;;;;;;4890176;29;20324;-71
2024/01/04 13:13:44;;;;;;;1.38;0.98;;;3.20;99.90;;;;;;4894598;29;20281;-72
2024/01/04 13:16:13;;;;;;;9.00;0.85;;;3.20;99.90;;;;;;4895295;29;20213;-72
2024/01/04 13:18:40;;;;;;;1.60;1.45;;;3.10;99.90;;;;;;4895182;29;20223;-71
2024/01/04 13:21:08;;;;;;;2.42;1.52;;;3.10;99.90;;;;;;4890958;29;20864;-72
2024/01/04 13:23:35;;;;;;;2.03;1.80;;;3.10;99.90;;;;;;4893057;29;20219;-72
2024/01/04 13:26:02;;;;;;;1.25;1.25;;;3.10;99.90;;;;;;4894126;29;20685;-72
2024/01/04 13:28:28;;;;;;;0.80;0.80;;;3.00;99.90;;;;;;4894300;29;20235;-72
2024/01/04 13:30:55;;;;;;;3.30;1.80;;;3.10;99.90;;;;;;4892900;29;20229;-70
2024/01/04 13:33:26;;;;;;;2.28;2.05;;;3.00;99.90;;;;;;4893283;29;20232;-72
2024/01/04 13:35:53;;;;;;;1.25;1.10;;;3.00;99.90;;;;;;4891798;29;20632;-72
2024/01/04 13:38:20;;;;;;;0.88;0.88;;;3.00;99.90;;;;;;4893839;29;20222;-72
2024/01/04 13:40:46;;;;;;;1.15;0.98;;;3.00;99.90;;;;;;4891770;29;20232;-72
2024/01/04 13:43:14;;;;;;;0.75;0.65;;;3.00;99.90;;;;;;4895751;29;20220;-74
2024/01/04 13:45:41;;;;;;;0.80;0.80;;;3.00;99.90;;;;;;4895425;29;20216;-73
2024/01/04 13:48:08;;;;;;;0.95;0.95;;;3.00;99.90;;;;;;4894826;29;20244;-72
2024/01/04 13:50:36;;;;;;;1.63;1.63;;;2.90;99.90;;;;;;4892716;29;20239;-72
2024/01/04 13:53:06;;;;;;;1.33;1.33;;;2.90;99.90;;;;;;4894543;29;20217;-72
2024/01/04 13:55:32;;;;;;;1.70;1.70;;;3.00;99.90;;;;;;4893895;29;20703;-72
2024/01/04 13:57:59;;;;;;;2.80;2.60;;;3.00;99.90;;;;;;4894163;29;20211;-72
2024/01/04 14:00:26;;;;;;;1.70;1.42;;;2.90;99.90;;;;;;4890985;29;20237;-72
2024/01/04 14:02:53;;;;;;;1.65;1.65;;;3.00;99.90;;;;;;4890271;29;20210;-72
2024/01/04 14:05:19;;;;;;;1.17;1.17;;;2.90;99.90;;;;;;4893685;29;20249;-72
2024/01/04 14:07:47;;;;;;;0.85;0.85;;;3.00;99.90;;;;;;4892441;29;20212;-72
2024/01/04 14:10:13;;;;;;;1.38;1.20;;;3.00;99.90;;;;;;4895288;29;20607;-72
2024/01/04 14:12:40;;;;;;;1.90;1.50;;;3.10;99.90;;;;;;4891737;29;20214;-72
2024/01/04 14:15:08;;;;;;;1.00;1.00;;;3.10;99.90;;;;;;4888055;29;20495;-71
2024/01/04 14:17:38;;;;;;;4.13;1.88;;;3.00;99.90;;;;;;4892256;29;20212;-72
2024/01/04 14:20:07;;;;;;;1.85;1.15;;;3.00;99.90;;;;;;4890588;29;20222;-72
2024/01/04 14:22:34;;;;;;;2.17;1.25;;;3.00;99.90;;;;;;4889113;29;20256;-72
2024/01/04 14:25:02;;;;;;;0.77;0.77;;;3.00;99.90;;;;;;4893622;29;20226;-73
2024/01/04 14:27:29;;;;;;;1.83;1.48;;;2.90;99.90;;;;;;4890977;29;20224;-72
2024/01/04 14:29:56;;;;;;;0.80;0.80;;;3.00;99.90;;;;;;4889015;29;20215;-72
2024/01/04 14:32:27;;;;;;;1.27;1.27;;;3.00;99.90;;;;;;4884511;29;20234;-72
2024/01/04 14:34:54;;;;;;;1.80;0.73;;;3.00;99.90;;;;;;4888042;29;20231;-72
2024/01/04 14:37:21;;;;;;;0.60;0.60;;;3.00;99.90;;;;;;4891934;29;20208;-72
2024/01/04 14:39:48;;;;;;;0.90;0.90;;;3.00;99.90;;;;;;4889299;29;20241;-72
2024/01/04 14:42:16;;;;;;;1.23;1.23;;;3.00;99.90;;;;;;4892546;29;20229;-73
2024/01/04 14:44:43;;;;;;;0.57;0.57;;;3.00;99.90;;;;;;4887283;29;20227;-72
2024/01/04 14:47:09;;;;;;;1.27;1.27;;;3.00;99.90;;;;;;4892094;29;20221;-72
2024/01/04 14:49:39;;;;;;;1.35;1.17;;;3.00;99.90;;;;;;4894135;29;20209;-71
2024/01/04 14:52:06;;;;;;;0.95;0.95;;;3.00;99.90;;;;;;4892270;29;20315;-70
2024/01/04 14:54:34;;;;;;;0.80;0.80;;;3.10;99.90;;;;;;4895360;29;20238;-71
2024/01/04 14:57:01;;;;;;;1.35;1.35;;;3.00;99.90;;;;;;4892930;29;20212;-71
2024/01/04 14:59:29;;;;;;;1.52;1.10;;;3.00;99.90;;;;;;4892573;29;20220;-72
2024/01/04 15:01:56;;;;;;;1.85;0.80;;;2.90;99.90;;;;;;4893237;29;20326;-72
2024/01/04 15:04:23;;;;;;;0.60;0.60;;;2.90;99.90;;;;;;4894688;29;20205;-71
2024/01/04 15:06:50;;;;;;;2.22;1.55;;;2.90;99.90;;;;;;4892277;29;20208;-72
2024/01/04 15:09:17;;;;;;;8.15;3.90;;;2.90;99.90;;;;;;4897126;29;20573;-72
2024/01/04 15:11:44;;;;;;;1.55;1.55;;;2.90;99.90;;;;;;4894611;29;20228;-71
2024/01/04 15:14:10;;;;;;;2.40;1.63;;;2.90;99.90;;;;;;4897083;29;20242;-72
2024/01/04 15:16:39;;;;;;;1.48;1.20;;;2.90;99.90;;;;;;4887738;29;20208;-72
2024/01/04 15:19:07;;;;;;;3.42;3.20;;;2.90;99.90;;;;;;4895762;29;20475;-72
2024/01/04 15:21:33;;;;;;;24.65;15.88;;;2.90;99.90;;;;;;4896201;29;20224;-72
2024/01/04 15:24:00;;;;;;;5.07;4.60;;;2.90;99.90;;;;;;4896484;29;20238;-71
2024/01/04 15:26:29;;;;;;;2.88;2.70;;;2.90;99.90;;;;;;4890463;29;20205;-72
2024/01/04 15:28:56;;;;;;;2.80;2.70;;;2.90;99.90;;;;;;4897024;29;20210;-73
2024/01/04 15:31:25;;;;;;;1.77;1.75;;;2.90;99.90;;;;;;4894444;29;20309;-73
2024/01/04 15:33:53;;;;;;;0.90;0.90;;;2.90;99.90;;;;;;4893514;29;20715;-71
2024/01/04 15:36:19;;;;;;;1.95;1.40;;;2.80;99.90;;;;;;4894192;29;20215;-73
2024/01/04 15:38:46;;;;;;;3.58;1.88;;;2.80;99.90;;;;;;4895876;29;20214;-73
2024/01/04 15:41:13;;;;;;;1.80;1.70;;;2.80;99.90;;;;;;4889144;29;20552;-73
2024/01/04 15:43:39;;;;;;;1.42;1.20;;;2.80;99.90;;;;;;4895567;29;20664;-73
2024/01/04 15:46:07;;;;;;;1.75;1.65;;;2.70;99.90;;;;;;4894776;29;20216;-73
2024/01/04 15:48:34;;;;;;;1.10;1.00;;;2.70;99.90;;;;;;4894371;29;20232;-72
2024/01/04 15:51:03;;;;;;;1.60;1.50;;;2.70;99.90;;;;;;4895753;29;20240;-73
2024/01/04 15:53:29;;;;;;;0.47;0.47;;;2.60;99.90;;;;;;4893937;29;20211;-73
2024/01/04 15:55:56;;;;;;;1.67;0.80;;;2.60;99.90;;;;;;4891892;29;20327;-72
2024/01/04 15:58:23;;;;;;;2.70;1.45;;;2.60;99.90;;;;;;4892068;29;20215;-72
2024/01/04 16:00:50;;;;;;;0.88;0.88;;;2.50;99.90;;;;;;4895412;29;20246;-72
2024/01/04 16:03:17;;;;;;;0.98;0.90;;;2.50;99.90;;;;;;4895313;29;20249;-72
2024/01/04 16:05:44;;;;;;;1.00;1.00;;;2.50;99.90;;;;;;4893296;29;20268;-73
2024/01/04 16:08:12;;;;;;;1.60;1.48;;;2.50;99.90;;;;;;4895897;29;20653;-72
2024/01/04 16:10:38;;;;;;;0.95;0.95;;;2.50;99.90;;;;;;4892481;29;20235;-72
2024/01/04 16:13:06;;;;;;;1.45;1.45;;;2.50;99.90;;;;;;4893651;29;20228;-72
2024/01/04 16:15:33;;;;;;;1.85;1.30;;;2.50;99.90;;;;;;4894648;29;20255;-72
2024/01/04 16:18:01;;;;;;;1.20;1.20;;;2.50;99.90;;;;;;4899757;29;20548;-73
2024/01/04 16:20:27;;;;;;;3.33;2.45;;;2.50;99.90;;;;;;4894641;29;20215;-72
2024/01/04 16:22:54;;;;;;;1.20;1.20;;;2.50;99.90;;;;;;4885657;29;20246;-72
2024/01/04 16:25:22;;;;;;;1.83;1.73;;;2.50;99.90;;;;;;4894528;29;20203;-73
2024/01/04 16:27:49;;;;;;;1.20;0.77;;;2.50;99.90;;;;;;4890896;29;20247;-73
2024/01/04 16:30:16;;;;;;;1.58;1.30;;;2.50;99.90;;;;;;4891853;29;20572;-72
2024/01/04 16:32:42;;;;;;;0.90;0.90;;;2.40;99.90;;;;;;4892175;29;20226;-73
2024/01/04 16:35:10;;;;;;;1.85;0.98;;;2.40;99.90;;;;;;4897386;29;20325;-73
2024/01/04 16:37:36;;;;;;;0.68;0.65;;;2.40;99.90;;;;;;4892398;29;20260;-74
2024/01/04 16:40:03;;;;;;;2.30;1.77;;;2.30;99.90;;;;;;4893040;29;20215;-74
2024/01/04 16:42:31;;;;;;;1.50;1.40;;;2.30;99.90;;;;;;4896713;29;20235;-73
2024/01/04 16:44:58;;;;;;;1.13;1.13;;;2.30;99.90;;;;;;4894891;29;20278;-72
2024/01/04 16:47:25;;;;;;;1.02;0.70;;;2.30;99.90;;;;;;4893295;29;20226;-73
2024/01/04 16:49:51;;;;;;;1.15;0.95;;;2.30;99.90;;;;;;4892015;29;20215;-70
2024/01/04 16:52:18;;;;;;;3.28;2.30;;;2.30;99.90;;;;;;4894873;29;20315;-72
2024/01/04 16:54:45;;;;;;;2.38;2.28;;;2.30;99.90;;;;;;4895280;29;20231;-71
2024/01/04 16:57:12;;;;;;;1.35;1.30;;;2.30;99.90;;;;;;4895682;29;20247;-72
2024/01/04 16:59:40;;;;;;;4.35;1.17;;;2.20;99.90;;;;;;4897038;29;20215;-73
2024/01/04 17:02:06;;;;;;;1.20;1.10;;;2.20;99.90;;;;;;4892380;29;20240;-72
2024/01/04 17:04:33;;;;;;;1.88;1.77;;;2.20;99.90;;;;;;4897674;29;20212;-72
2024/01/04 17:07:00;;;;;;;2.83;2.08;;;2.20;99.90;;;;;;4895293;29;20889;-71
2024/01/04 17:09:27;;;;;;;1.15;1.15;;;2.20;99.90;;;;;;4894991;29;20263;-72
2024/01/04 17:11:54;;;;;;;2.28;1.48;;;2.20;99.90;;;;;;4891481;29;20280;-72
2024/01/04 17:14:21;;;;;;;0.65;0.65;;;2.30;99.90;;;;;;4898509;29;20698;-72
2024/01/04 17:16:49;;;;;;;0.80;0.80;;;2.30;99.90;;;;;;4896245;29;20301;-72
2024/01/04 17:19:16;;;;;;;1.20;1.20;;;2.30;99.90;;;;;;4897350;29;20204;-72
2024/01/04 17:21:43;;;;;;;2.40;1.15;;;2.30;99.90;;;;;;4895857;29;20693;-73
2024/01/04 17:24:09;;;;;;;1.20;1.20;;;2.30;99.90;;;;;;4894604;29;20217;-73
2024/01/04 17:26:36;;;;;;;1.23;1.23;;;2.30;99.90;;;;;;4895784;29;20212;-71
2024/01/04 17:29:03;;;;;;;0.70;0.70;;;2.30;99.90;;;;;;4896358;29;20213;-74
2024/01/04 17:31:30;;;;;;;4.72;1.70;;;2.30;99.90;;;;;;4892575;29;20603;-72
2024/01/04 17:33:58;;;;;;;1.90;1.75;;;2.30;99.90;;;;;;4891749;29;20219;-72
2024/01/04 17:36:24;;;;;;;1.13;1.02;;;2.30;99.90;;;;;;4892976;29;20596;-70
2024/01/04 17:38:51;;;;;;;1.00;1.00;;;2.40;99.90;;;;;;4895434;29;20635;-72
2024/01/04 17:41:18;;;;;;;1.38;1.27;;;2.40;99.90;;;;;;4894503;29;20238;-72
2024/01/04 17:43:44;;;;;;;1.27;1.25;;;2.40;99.90;;;;;;4892503;29;20238;-72
2024/01/04 17:46:12;;;;;;;4.80;1.35;;;2.30;99.90;;;;;;4897107;29;20207;-72
2024/01/04 17:48:39;;;;;;;0.95;0.95;;;2.30;99.90;;;;;;4890198;29;20211;-72
2024/01/04 17:51:07;;;;;;;2.25;2.20;;;2.30;99.90;;;;;;4893098;29;20250;-73
2024/01/04 17:53:34;;;;;;;1.00;1.00;;;2.30;99.90;;;;;;4898155;29;20217;-73
2024/01/04 17:56:01;;;;;;;2.03;1.77;;;2.30;99.90;;;;;;4891567;29;20291;-72
2024/01/04 17:58:27;;;;;;;2.17;1.17;;;2.30;99.90;;;;;;4891560;29;20218;-73
2024/01/04 18:00:54;;;;;;;1.20;1.20;;;2.30;99.90;;;;;;4893143;29;20235;-70